Etusivu
METAR-TAF:

METAR-TAF

Lentoasemat :

Seattle / Tacoma, Washington, Yhdysvallat

Seattle-Tacoman kansainvälinen lentoasema

Leveyspiiri: 47-26-41N, Pituuspiiri: 122-18-49W, korkeus merenpinnasta: 130 m

Tämänhetkinen sää

Tämä raportti tehtiin 27 minuuttia sitten, kello 04.53 UTC
Tuuli 9 kn pohjoisesta
Lämpötila 24°C
Kosteus 44%
Ilmanpaine 1016 hPa
Näkyvyys: 16.1 km
selkeää

METAR: KSEA 250453Z 36009KT 10SM CLR 24/11 A2999 RMK AO2 SLP159 T02390106

Aika: 22:20 (05:20 UTC)

Sääennuste

Tämä raportti tehtiin 5 tuntia ja 58 minuuttia sitten, kello 23.22 UTC
Ennuste voimassa 25. päivästä klo 00 UTC - 26. päivään klo 06 UTC
Tuuli 10 kn pohjoisen/luoteesta
Näkyvyys: 10 km
selkeää
From 25. päivästä klo 0600 UTC
Tuuli 6 kn koillisesta
Näkyvyys: 10 km
selkeää
From 25. päivästä klo 2000 UTC
Tuuli 6 kn lännestä/luoteesta
Näkyvyys: 10 km
selkeää

TAF: KSEA 242322Z 2500/2606 34010KT P6SM SKC FM250600 04006KT P6SM SKC FM252000 30006KT P6SM SKC

Säähavainnot ja -ennusteet yli 4000 lentoasemalta (METAR- ja TAF-raportit).

Käytössä olevat sääasemat on merkitty karttaan keltaisilla ja punaisilla pisteillä.

Aseta hiiri pisteen päälle nähdäksesi sääaseman nimen.

Klikkaa sitten nähdäksesi säähavainnot ja -ennusteet.

Kartan vaihtaminen: klikkaa mustalla rastilla varustettuja vihreitä pisteitä, niin voit zoomata sisään; viivalla varustettua vihreää pistettä, niin voit zoomata ulos tai vihreitä nuolia, niin pääset viereisille kartoille.


METAR-TAF: